createdAt,value
2024-03-16T12:53:18.245Z,10.14
2024-03-16T12:54:16.437Z,10.14
2024-03-16T12:55:16.438Z,10.12
2024-03-16T12:56:16.345Z,10.07
2024-03-16T12:57:16.356Z,9.99
2024-03-16T12:58:16.348Z,9.91
2024-03-16T12:59:16.581Z,9.90
2024-03-16T13:00:16.363Z,9.86
2024-03-16T13:01:16.326Z,9.87
2024-03-16T13:02:16.290Z,9.91
2024-03-16T13:03:16.300Z,9.96
2024-03-16T13:04:16.263Z,9.97
2024-03-16T13:05:16.309Z,10.05
2024-03-16T13:06:16.269Z,10.02
2024-03-16T13:07:16.264Z,10.08
2024-03-16T13:08:16.318Z,10.09
2024-03-16T13:09:16.237Z,10.09
2024-03-16T13:10:16.210Z,10.09
2024-03-16T13:11:16.332Z,10.12
2024-03-16T13:12:16.196Z,10.08
2024-03-16T13:13:16.191Z,10.12
2024-03-16T13:14:16.185Z,10.12
2024-03-16T13:15:16.187Z,10.14
2024-03-16T13:16:16.205Z,10.14
2024-03-16T13:17:16.376Z,9.99
2024-03-16T13:18:16.200Z,10.01
2024-03-16T13:19:16.128Z,10.02
2024-03-16T13:20:16.103Z,10.04
2024-03-16T13:21:16.149Z,10.01
2024-03-16T13:22:16.089Z,9.97
2024-03-16T13:23:16.133Z,9.90
2024-03-16T13:24:16.042Z,9.78
2024-03-16T13:25:16.292Z,9.61
2024-03-16T13:26:16.139Z,9.57
2024-03-16T13:27:16.011Z,9.61
2024-03-16T13:28:16.014Z,9.64
2024-03-16T13:29:16.027Z,9.58
2024-03-16T13:30:16.012Z,9.61
2024-03-16T13:31:16.075Z,9.66
2024-03-16T13:32:15.975Z,9.65
2024-03-16T13:33:15.981Z,9.79
2024-03-16T13:34:15.946Z,9.86
2024-03-16T13:35:15.940Z,9.94
2024-03-16T13:36:15.919Z,10.02
2024-03-16T13:37:18.085Z,10.09
2024-03-16T13:38:15.896Z,10.17
2024-03-16T13:39:16.104Z,10.17
2024-03-16T13:40:15.909Z,10.26
2024-03-16T13:41:15.900Z,10.41
2024-03-16T13:42:15.846Z,10.55
2024-03-16T13:43:15.860Z,10.85
2024-03-16T13:44:15.835Z,11.06
2024-03-16T13:45:15.896Z,11.43
2024-03-16T13:46:15.873Z,11.55
2024-03-16T13:47:15.928Z,11.55
2024-03-16T13:48:15.829Z,11.57
2024-03-16T13:49:15.824Z,11.46
2024-03-16T13:50:15.884Z,11.35
2024-03-16T13:51:22.247Z,11.32
2024-03-16T13:52:16.758Z,11.33
2024-03-16T13:53:15.753Z,11.25
2024-03-16T13:54:15.817Z,11.02
2024-03-16T13:55:15.736Z,10.92
2024-03-16T13:56:15.701Z,10.81
2024-03-16T13:57:15.706Z,10.74
2024-03-16T13:58:15.704Z,10.61
2024-03-16T13:59:15.684Z,10.52
2024-03-16T14:00:15.809Z,10.44
2024-03-16T14:01:15.675Z,10.42
2024-03-16T14:02:15.650Z,10.33
2024-03-16T14:03:15.648Z,10.20
2024-03-16T14:04:15.664Z,10.18
2024-03-16T14:05:15.620Z,10.12
2024-03-16T14:06:15.640Z,10.11
2024-03-16T14:07:15.593Z,10.14
2024-03-16T14:08:15.572Z,10.18
2024-03-16T14:09:15.581Z,10.26
2024-03-16T14:10:17.919Z,10.27
2024-03-16T14:11:15.595Z,10.34
2024-03-16T14:12:15.528Z,10.42
2024-03-16T14:13:16.265Z,10.63
2024-03-16T14:14:15.531Z,10.74
2024-03-16T14:15:15.523Z,10.94
2024-03-16T14:16:15.506Z,11.42
2024-03-16T14:17:15.529Z,12.10
2024-03-16T14:18:16.427Z,12.54
2024-03-16T14:19:15.537Z,13.03
2024-03-16T14:20:15.462Z,13.42
2024-03-16T14:21:15.456Z,13.14
2024-03-16T14:22:15.440Z,12.77
2024-03-16T14:23:15.488Z,12.54
2024-03-16T14:24:15.448Z,12.54
2024-03-16T14:25:15.417Z,12.29
2024-03-16T14:26:16.336Z,11.86
2024-03-16T14:27:15.409Z,11.75
2024-03-16T14:28:15.353Z,11.35
2024-03-16T14:29:15.454Z,11.03
2024-03-16T14:30:15.454Z,11.03
2024-03-16T14:31:15.353Z,11.11
2024-03-16T14:32:15.397Z,11.02
2024-03-16T14:33:15.313Z,11.00
2024-03-16T14:34:15.280Z,11.10
2024-03-16T14:35:15.340Z,10.91
2024-03-16T14:36:15.366Z,10.89
2024-03-16T14:37:15.278Z,10.70
2024-03-16T14:38:15.237Z,10.53
2024-03-16T14:39:15.225Z,10.51
2024-03-16T14:40:17.155Z,10.47
2024-03-16T14:41:15.246Z,10.41
2024-03-16T14:42:15.229Z,10.36
2024-03-16T14:43:15.223Z,10.34
2024-03-16T14:44:15.187Z,10.33
2024-03-16T14:45:15.330Z,10.36
2024-03-16T14:46:15.177Z,10.42
2024-03-16T14:47:15.181Z,10.42
2024-03-16T14:48:15.131Z,10.34
2024-03-16T14:49:15.124Z,10.26
2024-03-16T14:50:15.134Z,10.23
2024-03-16T14:51:15.177Z,10.22
2024-03-16T14:52:15.096Z,10.15
2024-03-16T14:53:15.120Z,10.15
2024-03-16T14:54:15.130Z,10.22
2024-03-16T14:55:15.089Z,10.23
2024-03-16T14:56:15.084Z,10.22
2024-03-16T14:57:15.135Z,10.25
2024-03-16T14:58:15.064Z,10.23
2024-03-16T14:59:15.083Z,10.26
2024-03-16T15:00:15.105Z,10.26
2024-03-16T15:01:15.019Z,10.32
2024-03-16T15:02:14.996Z,10.36
2024-03-16T15:03:15.012Z,10.40
2024-03-16T15:04:14.966Z,10.36
2024-03-16T15:05:14.993Z,10.30
2024-03-16T15:06:14.973Z,10.23
2024-03-16T15:07:14.946Z,10.29
2024-03-16T15:08:14.928Z,10.33
2024-03-16T15:09:14.945Z,10.32
2024-03-16T15:10:14.928Z,10.30
2024-03-16T15:11:14.919Z,10.34
2024-03-16T15:12:15.029Z,10.40
2024-03-16T15:13:14.874Z,10.85
2024-03-16T15:14:14.872Z,11.02
2024-03-16T15:15:14.859Z,11.35
2024-03-16T15:16:14.841Z,11.83
2024-03-16T15:17:14.845Z,11.70
2024-03-16T15:18:15.473Z,11.72
2024-03-16T15:19:14.833Z,12.32
2024-03-16T15:20:14.787Z,12.74
2024-03-16T15:21:14.873Z,12.41
2024-03-16T15:22:14.769Z,12.90
2024-03-16T15:23:14.769Z,13.48
2024-03-16T15:24:14.791Z,13.88
2024-03-16T15:25:14.770Z,13.28
2024-03-16T15:26:15.244Z,12.71
2024-03-16T15:27:14.737Z,12.82
2024-03-16T15:28:14.719Z,13.32
2024-03-16T15:29:14.733Z,13.75
2024-03-16T15:30:14.717Z,13.88
2024-03-16T15:31:14.743Z,13.87
2024-03-16T15:32:15.430Z,13.81
2024-03-16T15:33:15.687Z,13.25
2024-03-16T15:34:14.683Z,12.85
2024-03-16T15:35:14.729Z,13.11
2024-03-16T15:36:14.636Z,13.20
2024-03-16T15:37:15.565Z,13.30
2024-03-16T15:38:14.607Z,12.93
2024-03-16T15:39:14.636Z,12.49
2024-03-16T15:40:14.598Z,11.98
2024-03-16T15:41:14.585Z,11.60
2024-03-16T15:42:14.577Z,11.35
2024-03-16T15:43:14.636Z,11.25
2024-03-16T15:44:14.589Z,11.19
2024-03-16T15:45:14.548Z,11.09
2024-03-16T15:46:14.533Z,11.04
2024-03-16T15:47:14.535Z,10.86
2024-03-16T15:48:14.500Z,10.84
2024-03-16T15:49:14.496Z,10.81
2024-03-16T15:50:14.477Z,10.76
2024-03-16T15:51:14.496Z,10.81
2024-03-16T15:52:17.077Z,10.86
2024-03-16T15:53:14.461Z,10.85
2024-03-16T15:54:14.423Z,10.82
2024-03-16T15:55:14.426Z,10.76
2024-03-16T15:56:15.697Z,10.68
2024-03-16T15:57:14.436Z,10.64
2024-03-16T15:58:14.393Z,10.63
2024-03-16T15:59:14.390Z,10.59
2024-03-16T16:00:14.386Z,10.61
2024-03-16T16:01:14.353Z,10.51
2024-03-16T16:02:14.361Z,10.48
2024-03-16T16:03:14.358Z,10.45
2024-03-16T16:04:14.315Z,10.48
2024-03-16T16:05:14.337Z,10.44
2024-03-16T16:06:14.306Z,10.41
2024-03-16T16:07:14.487Z,10.47
2024-03-16T16:08:14.284Z,10.45
2024-03-16T16:09:14.306Z,10.42
2024-03-16T16:10:15.263Z,10.42
2024-03-16T16:11:14.265Z,10.41
2024-03-16T16:12:14.240Z,10.45
2024-03-16T16:13:14.233Z,10.47
2024-03-16T16:14:14.206Z,10.44
2024-03-16T16:15:14.219Z,10.36
2024-03-16T16:16:14.226Z,10.34
2024-03-16T16:17:14.236Z,10.38
2024-03-16T16:18:14.179Z,10.32
2024-03-16T16:19:14.190Z,10.26
2024-03-16T16:20:14.162Z,10.22
2024-03-16T16:21:14.159Z,10.23
2024-03-16T16:22:14.135Z,10.23
2024-03-16T16:23:14.125Z,10.26
2024-03-16T16:24:14.116Z,10.25
2024-03-16T16:25:14.103Z,10.22
2024-03-16T16:26:14.103Z,10.20
2024-03-16T16:27:16.399Z,10.18
2024-03-16T16:28:14.094Z,10.18
2024-03-16T16:29:14.054Z,10.20
2024-03-16T16:30:14.059Z,10.17
2024-03-16T16:31:14.037Z,10.17
2024-03-16T16:32:14.130Z,10.12
2024-03-16T16:33:14.981Z,10.11
2024-03-16T16:34:14.013Z,10.11
2024-03-16T16:35:13.986Z,10.12
2024-03-16T16:36:13.996Z,10.09
2024-03-16T16:37:14.353Z,10.11
2024-03-16T16:38:14.004Z,10.11
2024-03-16T16:39:13.956Z,10.11
2024-03-16T16:40:14.009Z,10.12
2024-03-16T16:41:13.934Z,10.09
2024-03-16T16:42:13.937Z,10.08
2024-03-16T16:43:14.152Z,10.08
2024-03-16T16:44:13.943Z,10.05
2024-03-16T16:45:13.889Z,10.07
2024-03-16T16:46:13.912Z,10.07
2024-03-16T16:47:13.949Z,10.07
2024-03-16T16:48:13.877Z,10.07
2024-03-16T16:49:13.849Z,10.07
2024-03-16T16:50:13.875Z,10.07
2024-03-16T16:51:13.811Z,10.05
2024-03-16T16:52:13.823Z,10.04
2024-03-16T16:53:13.801Z,10.04
2024-03-16T16:54:13.799Z,10.01
2024-03-16T16:55:13.772Z,9.99
2024-03-16T16:56:13.784Z,9.99
2024-03-16T16:57:13.818Z,9.97
2024-03-16T16:58:13.745Z,9.96
2024-03-16T16:59:13.743Z,9.94
2024-03-16T17:00:13.732Z,9.90
2024-03-16T17:01:13.717Z,9.87
2024-03-16T17:02:13.724Z,9.87
2024-03-16T17:03:13.720Z,9.84
2024-03-16T17:04:13.713Z,9.79
2024-03-16T17:05:13.661Z,9.79
2024-03-16T17:06:13.669Z,9.75
2024-03-16T17:07:13.657Z,9.74
2024-03-16T17:08:13.655Z,9.72
2024-03-16T17:09:13.648Z,9.72
2024-03-16T17:10:13.621Z,9.66
2024-03-16T17:11:13.596Z,9.65
2024-03-16T17:12:13.613Z,9.64
2024-03-16T17:13:13.585Z,9.61
2024-03-16T17:14:13.579Z,9.58
2024-03-16T17:15:13.587Z,9.56
2024-03-16T17:16:15.354Z,9.54
2024-03-16T17:17:13.608Z,9.53
2024-03-16T17:18:13.541Z,9.51
2024-03-16T17:19:13.497Z,9.48
2024-03-16T17:20:13.523Z,9.46
2024-03-16T17:21:13.493Z,9.40
2024-03-16T17:22:13.486Z,9.39
2024-03-16T17:23:13.467Z,9.43
2024-03-16T17:24:13.496Z,9.48
2024-03-16T17:25:13.451Z,9.46
2024-03-16T17:26:13.466Z,9.47
2024-03-16T17:27:19.296Z,9.46
2024-03-16T17:28:14.444Z,9.42
2024-03-16T17:29:13.423Z,9.42
2024-03-16T17:30:13.421Z,9.43
2024-03-16T17:31:13.403Z,9.43
2024-03-16T17:32:13.390Z,9.40
2024-03-16T17:33:13.368Z,9.39
2024-03-16T17:34:13.387Z,9.38
2024-03-16T17:35:13.366Z,9.36
2024-03-16T17:36:13.357Z,9.38
2024-03-16T17:37:13.306Z,9.38
2024-03-16T17:38:13.370Z,9.36
2024-03-16T17:39:17.377Z,9.35
2024-03-16T17:40:14.293Z,9.31
2024-03-16T17:41:13.295Z,9.29
2024-03-16T17:42:13.291Z,9.23
2024-03-16T17:43:13.294Z,9.23
2024-03-16T17:44:13.261Z,9.20
2024-03-16T17:45:13.241Z,9.15
2024-03-16T17:46:13.239Z,9.15
2024-03-16T17:47:13.214Z,9.14
2024-03-16T17:48:13.234Z,9.10
2024-03-16T17:49:13.196Z,9.08
2024-03-16T17:50:13.197Z,9.08
2024-03-16T17:51:13.199Z,9.08
2024-03-16T17:52:13.177Z,9.08
2024-03-16T17:53:13.165Z,9.05
2024-03-16T17:54:13.167Z,9.05
2024-03-16T17:55:13.108Z,9.08
2024-03-16T17:56:13.131Z,9.05
2024-03-16T17:57:13.163Z,9.08
2024-03-16T17:58:13.480Z,9.08
2024-03-16T17:59:13.076Z,9.05
2024-03-16T18:00:13.132Z,9.04
2024-03-16T18:01:13.070Z,9.08
2024-03-16T18:02:13.061Z,9.04
2024-03-16T18:03:13.068Z,9.05
2024-03-16T18:04:13.059Z,9.02
2024-03-16T18:05:13.047Z,9.02
2024-03-16T18:06:13.074Z,9.02
2024-03-16T18:07:13.002Z,9.02
2024-03-16T18:08:13.003Z,9.05
2024-03-16T18:09:13.030Z,9.05
2024-03-16T18:10:13.010Z,9.08
2024-03-16T18:11:12.962Z,9.10
2024-03-16T18:12:12.956Z,9.10
2024-03-16T18:13:12.933Z,9.11
2024-03-16T18:14:12.937Z,9.10
2024-03-16T18:15:12.921Z,9.08
2024-03-16T18:16:12.912Z,9.04
2024-03-16T18:17:12.911Z,9.04
2024-03-16T18:18:12.908Z,9.02
2024-03-16T18:19:12.883Z,9.01
2024-03-16T18:20:13.121Z,9.01
2024-03-16T18:21:12.871Z,8.98
2024-03-16T18:22:12.880Z,8.95
2024-03-16T18:23:12.906Z,8.94
2024-03-16T18:24:12.850Z,8.92
2024-03-16T18:25:12.813Z,8.89
2024-03-16T18:26:12.833Z,8.87
2024-03-16T18:27:12.809Z,8.86
2024-03-16T18:28:12.786Z,8.81
2024-03-16T18:29:12.760Z,8.77
2024-03-16T18:30:12.774Z,8.76
2024-03-16T18:31:13.147Z,8.71
2024-03-16T18:32:12.768Z,8.70
2024-03-16T18:33:12.747Z,8.68
2024-03-16T18:34:12.721Z,8.70
2024-03-16T18:35:12.743Z,8.65
2024-03-16T18:36:12.725Z,8.62
2024-03-16T18:37:12.690Z,8.61
2024-03-16T18:38:12.731Z,8.56
2024-03-16T18:39:12.668Z,8.55
2024-03-16T18:40:12.745Z,8.48
2024-03-16T18:41:12.636Z,8.48
2024-03-16T18:42:12.646Z,8.50
2024-03-16T18:43:12.622Z,8.47
2024-03-16T18:44:12.616Z,8.44
2024-03-16T18:45:12.614Z,8.45
2024-03-16T18:46:12.618Z,8.41
2024-03-16T18:47:12.630Z,8.41
2024-03-16T18:48:12.586Z,8.38
2024-03-16T18:49:12.575Z,8.40
2024-03-16T18:50:12.569Z,8.38
2024-03-16T18:51:12.598Z,8.36
2024-03-16T18:52:12.589Z,8.34
2024-03-16T18:53:12.536Z,8.33
2024-03-16T18:54:12.558Z,8.33
2024-03-16T18:55:12.506Z,8.29
2024-03-16T18:56:12.509Z,8.33
2024-03-16T18:57:12.488Z,8.33
2024-03-16T18:58:12.469Z,8.34
2024-03-16T18:59:12.456Z,8.34
2024-03-16T19:00:12.470Z,8.33
2024-03-16T19:01:12.430Z,8.33
2024-03-16T19:02:12.418Z,8.34
2024-03-16T19:03:12.425Z,8.33
2024-03-16T19:04:12.447Z,8.30
2024-03-16T19:05:12.384Z,8.29
2024-03-16T19:06:13.352Z,8.29
2024-03-16T19:07:12.424Z,8.29
2024-03-16T19:08:12.448Z,8.29
2024-03-16T19:09:12.394Z,8.29
2024-03-16T19:10:12.407Z,8.28
2024-03-16T19:11:14.105Z,8.26
2024-03-16T19:12:12.343Z,8.22
2024-03-16T19:13:12.291Z,8.20
2024-03-16T19:14:12.303Z,8.22
2024-03-16T19:15:12.343Z,8.19
2024-03-16T19:16:12.351Z,8.20
2024-03-16T19:17:12.261Z,8.18
2024-03-16T19:18:12.278Z,8.16
2024-03-16T19:19:12.241Z,8.15
2024-03-16T19:20:12.242Z,8.10
2024-03-16T19:21:12.228Z,8.10
2024-03-16T19:22:12.237Z,8.08
2024-03-16T19:23:12.181Z,8.05
2024-03-16T19:24:12.204Z,8.04
2024-03-16T19:25:12.181Z,8.05
2024-03-16T19:26:12.281Z,8.07
2024-03-16T19:27:12.163Z,8.05
2024-03-16T19:28:12.159Z,8.07
2024-03-16T19:29:13.111Z,8.04
2024-03-16T19:30:12.129Z,8.01
2024-03-16T19:31:12.118Z,7.98
2024-03-16T19:32:12.115Z,8.00
2024-03-16T19:33:12.100Z,7.97
2024-03-16T19:34:12.097Z,7.93
2024-03-16T19:35:12.054Z,7.92
2024-03-16T19:36:12.077Z,7.90
2024-03-16T19:37:12.036Z,7.87
2024-03-16T19:38:12.054Z,7.86
2024-03-16T19:39:12.058Z,7.85
2024-03-16T19:40:12.036Z,7.83
2024-03-16T19:41:12.172Z,7.80
2024-03-16T19:42:12.171Z,7.79
2024-03-16T19:43:11.979Z,7.79
2024-03-16T19:44:12.005Z,7.77
2024-03-16T19:45:11.976Z,7.77
2024-03-16T19:46:12.027Z,7.75
2024-03-16T19:47:11.951Z,7.75
2024-03-16T19:48:12.135Z,7.74
2024-03-16T19:49:11.947Z,7.72
2024-03-16T19:50:11.932Z,7.69
2024-03-16T19:51:11.921Z,7.68
2024-03-16T19:52:11.956Z,7.69
2024-03-16T19:53:11.954Z,7.69
2024-03-16T19:54:11.872Z,7.72
2024-03-16T19:55:12.077Z,7.69
2024-03-16T19:56:11.874Z,7.67
2024-03-16T19:57:11.844Z,7.64
2024-03-16T19:58:11.841Z,7.61
2024-03-16T19:59:11.810Z,7.60
2024-03-16T20:00:11.827Z,7.57
2024-03-16T20:01:11.793Z,7.55
2024-03-16T20:02:11.792Z,7.60
2024-03-16T20:03:11.768Z,7.55
2024-03-16T20:04:11.789Z,7.55
2024-03-16T20:05:11.759Z,7.52
2024-03-16T20:06:11.759Z,7.50
2024-03-16T20:07:11.733Z,7.46
2024-03-16T20:08:11.717Z,7.46
2024-03-16T20:09:11.711Z,7.43
2024-03-16T20:10:11.690Z,7.40
2024-03-16T20:11:11.671Z,7.37
2024-03-16T20:12:11.677Z,7.32
2024-03-16T20:13:11.669Z,7.31
2024-03-16T20:14:11.661Z,7.35
2024-03-16T20:15:11.635Z,7.31
2024-03-16T20:16:13.280Z,7.30
2024-03-16T20:17:11.687Z,7.28
2024-03-16T20:18:11.619Z,7.25
2024-03-16T20:19:11.638Z,7.21
2024-03-16T20:20:11.625Z,7.21
2024-03-16T20:21:11.571Z,7.17
2024-03-16T20:22:11.570Z,7.16
2024-03-16T20:23:11.642Z,7.12
2024-03-16T20:24:11.567Z,7.09
2024-03-16T20:25:11.531Z,7.09
2024-03-16T20:26:11.526Z,7.07
2024-03-16T20:27:11.532Z,7.05
2024-03-16T20:28:11.504Z,7.03
2024-03-16T20:29:22.108Z,6.99
2024-03-16T20:30:14.327Z,6.98
2024-03-16T20:31:14.224Z,6.94
2024-03-16T20:32:11.476Z,6.94
2024-03-16T20:33:11.560Z,6.91
2024-03-16T20:34:11.456Z,6.91
2024-03-16T20:35:11.512Z,6.89
2024-03-16T20:36:12.220Z,6.88
2024-03-16T20:37:11.546Z,6.81
2024-03-16T20:38:11.412Z,6.79
2024-03-16T20:39:12.091Z,6.74
2024-03-16T20:40:11.539Z,6.71
2024-03-16T20:41:11.464Z,6.66
2024-03-16T20:42:11.394Z,6.64
2024-03-16T20:43:11.361Z,6.58
2024-03-16T20:44:11.436Z,6.51
2024-03-16T20:45:11.429Z,6.44
2024-03-16T20:46:11.313Z,6.40
2024-03-16T20:47:11.344Z,6.37
2024-03-16T20:48:11.323Z,6.30
2024-03-16T20:49:11.353Z,6.27
2024-03-16T20:50:11.268Z,6.22
2024-03-16T20:51:11.295Z,6.21
2024-03-16T20:52:11.302Z,6.15
2024-03-16T20:53:12.302Z,6.12
2024-03-16T20:54:12.200Z,6.04
2024-03-16T20:55:11.795Z,6.03
2024-03-16T20:56:11.200Z,5.99
2024-03-16T20:57:11.212Z,5.96
2024-03-16T20:58:11.212Z,5.91
2024-03-16T20:59:11.233Z,5.89
2024-03-16T21:00:11.165Z,5.85
2024-03-16T21:01:11.176Z,5.82
2024-03-16T21:02:12.181Z,5.76
2024-03-16T21:03:11.133Z,5.72
2024-03-16T21:04:11.159Z,5.68
2024-03-16T21:05:11.244Z,5.63
2024-03-16T21:06:11.785Z,5.60
2024-03-16T21:07:12.111Z,5.57
2024-03-16T21:08:11.149Z,5.57
2024-03-16T21:09:11.153Z,5.56
2024-03-16T21:10:11.105Z,5.56
2024-03-16T21:11:11.107Z,5.54
2024-03-16T21:12:11.123Z,5.54
2024-03-16T21:13:11.241Z,5.51
2024-03-16T21:14:11.037Z,5.53
2024-03-16T21:15:11.067Z,5.54
2024-03-16T21:16:11.026Z,5.54
2024-03-16T21:17:11.075Z,5.56
2024-03-16T21:18:11.029Z,5.56
2024-03-16T21:19:11.011Z,5.54
2024-03-16T21:20:10.976Z,5.53
2024-03-16T21:21:11.183Z,5.49
2024-03-16T21:22:10.958Z,5.48
2024-03-16T21:23:11.087Z,5.45
2024-03-16T21:24:10.932Z,5.45
2024-03-16T21:25:10.991Z,5.43
2024-03-16T21:26:11.016Z,5.42
2024-03-16T21:27:10.956Z,5.42
2024-03-16T21:28:10.929Z,5.39
2024-03-16T21:29:10.916Z,5.35
2024-03-16T21:30:11.125Z,5.33
2024-03-16T21:31:10.867Z,5.33
2024-03-16T21:32:10.932Z,5.30
2024-03-16T21:33:10.852Z,5.27
2024-03-16T21:34:10.862Z,5.27
2024-03-16T21:35:13.764Z,5.22
2024-03-16T21:36:10.931Z,5.20
2024-03-16T21:37:10.831Z,5.18
2024-03-16T21:38:10.821Z,5.15
2024-03-16T21:39:10.839Z,5.12
2024-03-16T21:40:11.185Z,5.06
2024-03-16T21:41:10.849Z,5.03
2024-03-16T21:42:10.764Z,4.99
2024-03-16T21:43:10.801Z,4.94
2024-03-16T21:44:10.740Z,4.92
2024-03-16T21:45:10.708Z,4.91
2024-03-16T21:46:10.761Z,4.89
2024-03-16T21:47:10.769Z,4.85
2024-03-16T21:48:10.677Z,4.84
2024-03-16T21:49:10.716Z,4.82
2024-03-16T21:50:10.673Z,4.85
2024-03-16T21:51:10.671Z,4.80
2024-03-16T21:52:10.642Z,4.77
2024-03-16T21:53:10.681Z,4.75
2024-03-16T21:54:10.625Z,4.72
2024-03-16T21:55:10.697Z,4.70
2024-03-16T21:56:10.590Z,4.69
2024-03-16T21:57:11.151Z,4.66
2024-03-16T21:58:10.566Z,4.63
2024-03-16T21:59:10.649Z,4.60
2024-03-16T22:00:12.324Z,4.58
2024-03-16T22:01:10.607Z,4.58
2024-03-16T22:02:10.553Z,4.59
2024-03-16T22:03:10.636Z,4.58
2024-03-16T22:04:10.555Z,4.55
2024-03-16T22:05:10.542Z,4.59
2024-03-16T22:06:10.495Z,4.59
2024-03-16T22:07:10.542Z,4.60
2024-03-16T22:08:10.475Z,4.60
2024-03-16T22:09:10.504Z,4.59
2024-03-16T22:10:10.758Z,4.60
2024-03-16T22:11:10.522Z,4.59
2024-03-16T22:12:10.433Z,4.58
2024-03-16T22:13:11.175Z,4.55
2024-03-16T22:14:10.523Z,4.54
2024-03-16T22:15:10.500Z,4.48
2024-03-16T22:16:10.432Z,4.47
2024-03-16T22:17:10.451Z,4.44
2024-03-16T22:18:10.363Z,4.40
2024-03-16T22:19:10.413Z,4.36
2024-03-16T22:20:10.360Z,4.34
2024-03-16T22:21:10.371Z,4.30
2024-03-16T22:22:10.415Z,4.29
2024-03-16T22:23:10.395Z,4.24
2024-03-16T22:24:10.334Z,4.18
2024-03-16T22:25:10.299Z,4.16
2024-03-16T22:26:11.008Z,4.24
2024-03-16T22:27:10.276Z,4.14
2024-03-16T22:28:10.306Z,4.11
2024-03-16T22:29:10.338Z,4.11
2024-03-16T22:30:10.245Z,4.11
2024-03-16T22:31:10.244Z,4.09
2024-03-16T22:32:10.205Z,4.09
2024-03-16T22:33:10.653Z,4.09
2024-03-16T22:34:10.263Z,4.12
2024-03-16T22:35:10.277Z,4.11
2024-03-16T22:36:10.187Z,4.08
2024-03-16T22:37:10.249Z,4.09
2024-03-16T22:38:10.142Z,4.04
2024-03-16T22:39:10.255Z,4.02
2024-03-16T22:40:10.140Z,4.02
2024-03-16T22:41:12.663Z,4.02
2024-03-16T22:42:10.396Z,4.00
2024-03-16T22:43:16.907Z,4.00
2024-03-16T22:44:11.284Z,3.97
2024-03-16T22:45:10.141Z,3.97
2024-03-16T22:46:10.212Z,3.94
2024-03-16T22:47:10.395Z,3.93
2024-03-16T22:48:10.121Z,3.90
2024-03-16T22:49:10.350Z,3.88
2024-03-16T22:50:11.118Z,3.86
2024-03-16T22:51:10.342Z,3.86
2024-03-16T22:52:10.155Z,3.83
2024-03-16T22:53:10.310Z,3.83
2024-03-16T22:54:10.272Z,3.83
2024-03-16T22:55:10.236Z,3.83
2024-03-16T22:56:10.227Z,3.80
2024-03-16T22:57:10.414Z,3.80
2024-03-16T22:58:10.086Z,3.80
2024-03-16T22:59:10.442Z,3.79
2024-03-16T23:00:10.002Z,3.79
2024-03-16T23:01:10.173Z,3.79
2024-03-16T23:02:10.075Z,3.79
2024-03-16T23:03:09.917Z,3.76
2024-03-16T23:04:11.888Z,3.76
2024-03-16T23:05:09.957Z,3.76
2024-03-16T23:06:09.925Z,3.75
2024-03-16T23:07:10.018Z,3.73
2024-03-16T23:08:09.863Z,3.72
2024-03-16T23:09:10.003Z,3.73
2024-03-16T23:10:09.848Z,3.73
2024-03-16T23:11:09.903Z,3.73
2024-03-16T23:12:09.780Z,3.72
2024-03-16T23:13:09.857Z,3.69
2024-03-16T23:14:09.776Z,3.69
2024-03-16T23:15:09.807Z,3.68
2024-03-16T23:16:09.733Z,3.66
2024-03-16T23:17:09.862Z,3.68
2024-03-16T23:18:09.772Z,3.65
2024-03-16T23:19:09.748Z,3.60
2024-03-16T23:20:10.129Z,3.54
2024-03-16T23:21:09.983Z,3.52
2024-03-16T23:22:10.094Z,3.47
2024-03-16T23:23:10.356Z,3.43
2024-03-16T23:24:09.858Z,3.42
2024-03-16T23:25:09.859Z,3.35
2024-03-16T23:26:10.280Z,3.33
2024-03-16T23:27:09.919Z,3.32
2024-03-16T23:28:09.975Z,3.28
2024-03-16T23:29:10.397Z,3.28
2024-03-16T23:30:09.938Z,3.29
2024-03-16T23:31:09.804Z,3.28
2024-03-16T23:32:09.760Z,3.28
2024-03-16T23:33:09.873Z,3.28
2024-03-16T23:34:09.759Z,3.24
2024-03-16T23:35:09.872Z,3.21
2024-03-16T23:36:10.038Z,3.20
2024-03-16T23:37:10.807Z,3.18
2024-03-16T23:38:09.856Z,3.17
2024-03-16T23:39:09.957Z,3.18
2024-03-16T23:40:09.721Z,3.20
2024-03-16T23:41:09.550Z,3.18
2024-03-16T23:42:09.514Z,3.17
2024-03-16T23:43:09.485Z,3.15
2024-03-16T23:44:09.470Z,3.15
2024-03-16T23:45:09.492Z,3.15
2024-03-16T23:46:09.500Z,3.15
2024-03-16T23:47:09.465Z,3.15
2024-03-16T23:48:09.509Z,3.17
2024-03-16T23:49:09.450Z,3.17
2024-03-16T23:50:09.452Z,3.18
2024-03-16T23:51:09.416Z,3.18
2024-03-16T23:52:09.418Z,3.20
2024-03-16T23:53:09.424Z,3.21
2024-03-16T23:54:09.388Z,3.21
2024-03-16T23:55:09.332Z,3.20
2024-03-16T23:56:09.364Z,3.18
2024-03-16T23:57:09.311Z,3.17
2024-03-16T23:58:09.358Z,3.15
2024-03-16T23:59:09.353Z,3.15
